HTIR/IRI METAR and TAF weather

Enter ICAO airport designator
Station Type Date Time Source
HTIR METAR 2019/04/18 12:00 UTC NOAA

HTIR 181200Z 12005KT 9999 BKN025 29/16 Q1019


Station Type Date Time Source
HTIR Decoded METAR 2019/04/18 12:00 UTC NOAA

Iringa, Tanzania (HTIR) 07-40S 035-45E 1428M
Apr 18, 2019 - 08:00 AM EDT / 2019.04.18 1200 UTC
Wind: from the ESE (120 degrees) at 6 MPH (5 KT):0
Visibility: greater than 7 mile(s):0
Sky conditions: mostly cloudy
Temperature: 84 F (29 C)
Dew Point: 60 F (16 C)
Relative Humidity: 45%
Pressure (altimeter): 30.09 in. Hg (1019 hPa)
ob: HTIR 181200Z 12005KT 9999 BKN025 29/16 Q1019
cycle: 12

Station Type Date Time Source
HTIR TAF UTC NOAA

Error!

Example: see airport list